Terminal Aerodrome Forecast
Issued by NWS Newport/Morehead City, NC

Home | Current Version | Previous Version | Graphics & Text | Print | Product List | Glossary On
Versions: 1 2 3 4 5 6 7 8 9 10 11 12 13 14 15 16 17 18 19 20
050
FTUS42 KMHX 180937 AAA
TAFEWN
TAF AMD
KEWN 180937Z 1810/1906 19003KT 5SM BR SKC
     FM181200 19007KT P6SM SCT050
     FM181800 20006KT P6SM VCTS BKN040CB
     FM190100 20008KT P6SM SCT050=

USA.gov is the U.S. government's official web portal to all federal, state and local government web resources and services.